Time;durP1;ratioP1;P1;durP2;ratioP2;P2;SDS_P1;SDS_P2;PMS_P1;PMS_P2;Temp;Humidity;BMP_temperature;BMP_pressure;BME280_temperature;BME280_humidity;BME280_pressure;Samples;Min_cycle;Max_cycle;Signal;HPM_P1;HPM_P2
2021/06/30 00:00:15;;;;;;;3.25;1.77;;;;;;;22.59;59.80;101071.09;5030867;28;20432;-58
2021/06/30 00:02:43;;;;;;;3.33;1.92;;;;;;;22.60;59.55;101078.06;5030620;28;20033;-58
2021/06/30 00:05:08;;;;;;;3.30;1.90;;;;;;;22.59;60.02;101069.28;5031037;28;20019;-59
2021/06/30 00:07:34;;;;;;;3.58;1.77;;;;;;;22.59;59.71;101071.09;5032640;28;20022;-58
2021/06/30 00:10:04;;;;;;;3.40;1.90;;;;;;;22.57;59.73;101073.91;5033997;28;20022;-59
2021/06/30 00:12:29;;;;;;;4.47;1.88;;;;;;;22.57;59.57;101075.69;5034694;28;20030;-58
2021/06/30 00:14:55;;;;;;;3.42;1.92;;;;;;;22.55;59.40;101073.19;5034682;28;20026;-59
2021/06/30 00:17:21;;;;;;;3.95;2.00;;;;;;;22.56;59.52;101071.41;5033569;28;20464;-58
2021/06/30 00:19:47;;;;;;;3.25;2.00;;;;;;;22.56;59.52;101074.06;5034811;28;20017;-58
2021/06/30 00:22:15;;;;;;;3.08;1.77;;;;;;;22.56;59.80;101074.06;5034307;28;20021;-58
2021/06/30 00:24:40;;;;;;;3.42;2.10;;;;;;;22.54;59.81;101063.56;5033887;28;20021;-58
2021/06/30 00:27:06;;;;;;;4.88;1.90;;;;;;;22.53;59.62;101064.53;5034354;28;20021;-58
2021/06/30 00:29:31;;;;;;;3.17;1.80;;;;;;;22.53;59.70;101069.03;5033463;28;20038;-58
2021/06/30 00:32:02;;;;;;;4.32;2.10;;;;;;;22.53;59.40;101064.53;5034230;28;20033;-57
2021/06/30 00:34:27;;;;;;;3.55;1.80;;;;;;;22.53;59.36;101061.06;5034568;28;20021;-57
2021/06/30 00:36:56;;;;;;;3.50;1.92;;;;;;;22.52;59.42;101065.53;5033478;28;20105;-58
2021/06/30 00:39:24;;;;;;;3.13;1.80;;;;;;;22.51;59.60;101061.22;5033993;28;20583;-59
2021/06/30 00:41:50;;;;;;;4.40;1.90;;;;;;;22.51;59.33;101058.56;5034308;28;20029;-58
2021/06/30 00:44:15;;;;;;;3.38;1.80;;;;;;;22.50;59.32;101056.03;5033116;28;20032;-57
2021/06/30 00:46:41;;;;;;;5.00;2.53;;;;;;;22.50;59.04;101061.38;5034039;28;20529;-57
2021/06/30 00:49:09;;;;;;;4.13;1.77;;;;;;;22.49;59.41;101052.53;5033729;28;20277;-58
2021/06/30 00:51:35;;;;;;;3.47;2.00;;;;;;;22.49;59.19;101049.06;5033414;28;20033;-58
2021/06/30 00:54:00;;;;;;;3.38;1.88;;;;;;;22.47;59.33;101049.19;5034197;28;20498;-59
2021/06/30 00:56:27;;;;;;;3.83;1.93;;;;;;;22.48;59.22;101058.00;5033582;28;20021;-59
2021/06/30 00:59:03;;;;;;;3.53;1.80;;;;;;;22.47;59.16;101046.53;5033070;28;20275;-58
2021/06/30 01:01:28;;;;;;;3.00;1.67;;;;;;;22.47;59.22;101051.84;5034381;28;20021;-59
2021/06/30 01:03:54;;;;;;;3.20;1.80;;;;;;;22.46;59.08;101053.69;5034018;28;20033;-57
2021/06/30 01:06:20;;;;;;;3.45;1.92;;;;;;;22.46;59.25;101058.13;5033128;28;20373;-57
2021/06/30 01:08:47;;;;;;;4.35;1.85;;;;;;;22.46;59.30;101055.50;5033792;28;20076;-57
2021/06/30 01:11:13;;;;;;;3.20;1.80;;;;;;;22.44;59.04;101055.63;5033365;28;20022;-58
2021/06/30 01:13:42;;;;;;;4.57;1.85;;;;;;;22.45;59.18;101051.19;5032902;28;20036;-57
2021/06/30 01:16:07;;;;;;;3.03;1.80;;;;;;;22.45;58.86;101059.16;5033378;28;20033;-58
2021/06/30 01:18:36;;;;;;;3.58;2.00;;;;;;;22.43;58.88;101050.47;5033019;28;20466;-57
2021/06/30 01:21:06;;;;;;;3.90;1.88;;;;;;;22.43;58.99;101051.31;5032975;28;20043;-58
2021/06/30 01:23:31;;;;;;;3.55;1.80;;;;;;;22.43;59.12;101053.97;5033425;28;20432;-58
2021/06/30 01:25:58;;;;;;;3.50;1.73;;;;;;;22.43;58.81;101053.97;5032550;28;20033;-58
2021/06/30 01:28:26;;;;;;;3.53;1.75;;;;;;;22.41;59.08;101053.31;5033366;28;20056;-58
2021/06/30 01:30:53;;;;;;;3.00;1.60;;;;;;;22.41;59.04;101061.28;5033035;28;20393;-58
2021/06/30 01:33:19;;;;;;;3.35;1.95;;;;;;;22.41;58.61;101058.63;5032321;28;20051;-58
2021/06/30 01:35:45;;;;;;;4.03;1.88;;;;;;;22.41;58.87;101050.66;5033318;28;20112;-58
2021/06/30 01:38:10;;;;;;;3.95;1.83;;;;;;;22.41;58.88;101053.31;5032951;28;20071;-58
2021/06/30 01:40:36;;;;;;;3.80;1.70;;;;;;;22.40;58.67;101046.31;5032183;28;20021;-57
2021/06/30 01:43:02;;;;;;;3.40;1.70;;;;;;;22.41;58.89;101047.13;5033277;28;20025;-58
2021/06/30 01:45:29;;;;;;;2.90;1.45;;;;;;;22.39;58.68;101039.31;5033080;28;20527;-58
2021/06/30 01:47:54;;;;;;;2.72;1.70;;;;;;;22.38;58.80;101032.34;5032377;28;20029;-58
2021/06/30 01:50:20;;;;;;;3.67;2.03;;;;;;;22.39;58.68;101030.53;5032502;28;20022;-57
2021/06/30 01:52:45;;;;;;;4.00;1.70;;;;;;;22.37;58.43;101033.31;5032769;28;20017;-58
2021/06/30 01:55:15;;;;;;;4.03;1.90;;;;;;;22.37;58.51;101021.88;5031777;28;20089;-58
2021/06/30 01:57:46;;;;;;;2.83;1.70;;;;;;;22.35;58.72;101026.47;5032620;28;20072;-57
2021/06/30 02:00:13;;;;;;;3.10;1.90;;;;;;;22.37;58.49;101028.00;5032498;28;20358;-58
2021/06/30 02:02:39;;;;;;;3.58;1.90;;;;;;;22.36;58.61;101026.34;5031864;28;20029;-57
2021/06/30 02:05:12;;;;;;;3.17;1.85;;;;;;;22.35;58.52;101019.38;5032310;28;20018;-57
2021/06/30 02:07:38;;;;;;;2.95;1.80;;;;;;;22.36;58.34;101026.34;5032649;28;20037;-58
2021/06/30 02:10:11;;;;;;;3.38;1.80;;;;;;;22.36;58.48;101025.50;5031505;28;20370;-58
2021/06/30 02:12:37;;;;;;;3.58;1.90;;;;;;;22.34;58.64;101020.34;5032836;28;20108;-57
2021/06/30 02:15:07;;;;;;;3.03;1.80;;;;;;;22.34;58.34;101020.34;5031386;28;20093;-57
2021/06/30 02:17:33;;;;;;;3.05;1.75;;;;;;;22.34;58.28;101016.88;5032280;28;20101;-57
2021/06/30 02:20:01;;;;;;;3.28;1.90;;;;;;;22.33;58.38;101029.28;5032577;28;20037;-58
2021/06/30 02:22:26;;;;;;;3.95;1.77;;;;;;;22.32;58.43;101022.31;5031611;28;20036;-58
2021/06/30 02:24:55;;;;;;;3.10;1.60;;;;;;;22.33;58.36;101020.50;5032477;28;20018;-58
2021/06/30 02:27:21;;;;;;;4.68;2.00;;;;;;;22.32;58.29;101017.00;5032121;28;20399;-58
2021/06/30 02:29:46;;;;;;;2.75;1.50;;;;;;;22.32;58.54;101008.19;5031199;28;20049;-57
2021/06/30 02:32:14;;;;;;;3.03;1.83;;;;;;;22.32;58.43;101022.31;5031169;28;20459;-58
2021/06/30 02:34:39;;;;;;;3.83;1.92;;;;;;;22.31;58.27;101023.28;5031994;28;20021;-56
2021/06/30 02:37:05;;;;;;;3.10;1.83;;;;;;;22.26;58.33;101014.91;5031032;28;20052;-58
2021/06/30 02:39:30;;;;;;;3.35;1.80;;;;;;;22.31;58.34;101011.84;5032233;28;20298;-58
2021/06/30 02:41:55;;;;;;;2.97;1.63;;;;;;;22.29;58.15;101014.63;5031910;28;20021;-58
2021/06/30 02:44:21;;;;;;;2.78;1.65;;;;;;;22.30;58.25;101011.00;5031345;28;20298;-58
2021/06/30 02:46:47;;;;;;;3.53;1.70;;;;;;;22.28;58.24;101007.63;5032441;28;20420;-58
2021/06/30 02:49:12;;;;;;;3.08;1.70;;;;;;;22.28;58.32;101013.75;5031689;28;20053;-57
2021/06/30 02:51:37;;;;;;;2.72;1.60;;;;;;;22.28;58.09;101015.59;5031131;28;20289;-58
2021/06/30 02:54:02;;;;;;;2.45;1.50;;;;;;;22.28;58.20;101010.28;5031845;28;20436;-57
2021/06/30 02:56:28;;;;;;;3.38;1.70;;;;;;;22.27;57.90;101011.25;5031820;28;20064;-58
2021/06/30 02:58:53;;;;;;;3.00;1.65;;;;;;;22.27;58.02;101009.47;5031069;28;20033;-58
2021/06/30 03:01:18;;;;;;;3.40;1.73;;;;;;;22.26;57.85;101015.75;5031580;28;20025;-58
2021/06/30 03:03:44;;;;;;;2.47;1.52;;;;;;;22.26;58.15;101020.22;5031761;28;20021;-57
2021/06/30 03:06:12;;;;;;;3.00;1.40;;;;;;;22.25;58.17;101014.06;5030729;28;20148;-58
2021/06/30 03:08:38;;;;;;;2.70;1.60;;;;;;;22.25;58.01;101016.72;5031944;28;20036;-57
2021/06/30 03:11:03;;;;;;;2.77;1.60;;;;;;;22.25;57.88;101005.28;5031548;28;20377;-58
2021/06/30 03:13:29;;;;;;;2.70;1.50;;;;;;;22.26;58.06;101014.91;5030946;28;20266;-58
2021/06/30 03:15:54;;;;;;;2.60;1.48;;;;;;;22.24;57.77;101012.41;5031858;28;20089;-58
2021/06/30 03:18:22;;;;;;;3.05;1.70;;;;;;;22.25;57.77;101018.53;5030667;28;20037;-58
2021/06/30 03:20:48;;;;;;;3.28;1.45;;;;;;;22.25;57.80;101010.56;5031677;28;20029;-58
2021/06/30 03:23:16;;;;;;;4.27;1.80;;;;;;;22.23;57.63;101016.03;5031627;28;20029;-58
2021/06/30 03:25:41;;;;;;;2.60;1.40;;;;;;;22.24;57.86;101014.25;5030969;28;20271;-57
2021/06/30 03:28:07;;;;;;;2.97;1.60;;;;;;;22.23;57.82;101009.91;5031402;28;20370;-57
2021/06/30 03:30:34;;;;;;;2.78;1.50;;;;;;;22.23;57.72;101012.56;5031320;28;20371;-58
2021/06/30 03:33:00;;;;;;;2.80;1.40;;;;;;;22.22;57.83;101019.69;5030752;28;20033;-58
2021/06/30 03:35:25;;;;;;;2.63;1.42;;;;;;;22.22;57.81;101022.34;5031165;28;20021;-57
2021/06/30 03:37:50;;;;;;;3.17;1.52;;;;;;;22.22;57.82;101026.81;5031671;28;20096;-58
2021/06/30 03:40:16;;;;;;;3.67;1.45;;;;;;;22.21;57.73;101025.97;5030291;28;20408;-57
2021/06/30 03:42:41;;;;;;;3.85;1.55;;;;;;;22.22;57.64;101024.16;5033306;28;20030;-58
2021/06/30 03:45:07;;;;;;;3.23;1.70;;;;;;;22.22;57.64;101025.00;5034905;28;20041;-58
2021/06/30 03:47:33;;;;;;;3.60;1.45;;;;;;;22.21;57.84;101035.75;5034277;28;20336;-58
2021/06/30 03:49:58;;;;;;;2.63;1.40;;;;;;;22.20;57.79;101040.22;5035394;28;20029;-58
2021/06/30 03:52:25;;;;;;;2.70;1.55;;;;;;;22.21;57.61;101038.41;5034870;28;20385;-57
2021/06/30 03:54:53;;;;;;;2.83;1.60;;;;;;;22.19;57.76;101038.56;5034317;28;20025;-57
2021/06/30 03:57:18;;;;;;;2.05;1.20;;;;;;;22.19;57.81;101038.56;5034727;28;20138;-58
2021/06/30 03:59:46;;;;;;;2.60;1.40;;;;;;;22.19;57.69;101041.22;5034923;28;20061;-57
2021/06/30 04:02:11;;;;;;;2.72;1.40;;;;;;;22.18;57.65;101036.06;5033863;28;20100;-57
2021/06/30 04:04:37;;;;;;;2.60;1.40;;;;;;;22.18;57.72;101036.88;5034809;28;20111;-57
2021/06/30 04:07:03;;;;;;;2.42;1.30;;;;;;;22.18;57.47;101036.06;5034729;28;20028;-58
2021/06/30 04:09:29;;;;;;;2.92;1.45;;;;;;;22.17;57.60;101035.19;5034170;28;20025;-58
2021/06/30 04:11:56;;;;;;;2.13;1.40;;;;;;;22.19;57.50;101043.03;5034797;28;20032;-59
2021/06/30 04:14:22;;;;;;;2.45;1.38;;;;;;;22.18;57.57;101038.72;5034358;28;20477;-59
2021/06/30 04:16:47;;;;;;;2.45;1.40;;;;;;;22.17;57.49;101037.84;5033885;28;20036;-58
2021/06/30 04:19:13;;;;;;;2.33;1.40;;;;;;;22.16;57.64;101036.19;5034211;28;20037;-59
2021/06/30 04:21:38;;;;;;;2.15;1.30;;;;;;;22.16;57.49;101036.19;5033894;28;20083;-58
2021/06/30 04:24:06;;;;;;;2.72;1.45;;;;;;;22.16;57.65;101038.00;5034391;28;20381;-58
2021/06/30 04:26:32;;;;;;;2.53;1.42;;;;;;;22.16;57.40;101038.00;5034540;28;20048;-58
2021/06/30 04:28:57;;;;;;;3.08;1.60;;;;;;;22.15;57.55;101029.22;5033579;28;20373;-58
2021/06/30 04:31:22;;;;;;;3.20;1.27;;;;;;;22.15;57.41;101033.69;5033954;28;20054;-57
2021/06/30 04:33:47;;;;;;;1.77;1.03;;;;;;;22.15;57.29;101033.69;5034630;28;20337;-58
2021/06/30 04:36:13;;;;;;;2.22;1.20;;;;;;;22.14;57.53;101032.84;5033155;28;20642;-58
2021/06/30 04:38:38;;;;;;;3.22;1.50;;;;;;;22.15;57.25;101033.69;5034390;28;20032;-57
2021/06/30 04:41:03;;;;;;;2.35;1.30;;;;;;;22.13;57.40;101031.19;5033953;28;20228;-58
2021/06/30 04:43:29;;;;;;;2.55;1.45;;;;;;;22.13;57.43;101036.50;5033547;28;20045;-57
2021/06/30 04:45:55;;;;;;;2.90;1.50;;;;;;;22.13;57.43;101035.63;5034005;28;20029;-58
2021/06/30 04:48:20;;;;;;;2.38;1.17;;;;;;;22.13;57.28;101032.97;5033664;28;20114;-58
2021/06/30 04:50:45;;;;;;;2.38;1.38;;;;;;;22.13;57.40;101041.81;5033476;28;20473;-57
2021/06/30 04:53:11;;;;;;;2.45;1.30;;;;;;;22.13;57.27;101035.63;5033252;28;20036;-57
2021/06/30 04:55:36;;;;;;;3.10;1.48;;;;;;;22.13;57.47;101038.28;5033599;28;20021;-58
2021/06/30 04:58:02;;;;;;;2.88;1.33;;;;;;;22.12;57.22;101044.59;5032969;28;20033;-58
2021/06/30 05:00:27;;;;;;;2.78;1.25;;;;;;;22.12;57.33;101041.94;5033829;28;20388;-58
2021/06/30 05:02:52;;;;;;;2.00;1.20;;;;;;;22.11;57.18;101043.75;5033779;28;20056;-58
2021/06/30 05:05:17;;;;;;;2.43;1.30;;;;;;;22.12;57.23;101050.72;5032859;28;20278;-58
2021/06/30 05:07:46;;;;;;;3.03;1.38;;;;;;;22.11;57.24;101046.41;5033833;28;20275;-58
2021/06/30 05:10:11;;;;;;;2.33;1.30;;;;;;;22.10;57.22;101053.53;5033224;28;20355;-58
2021/06/30 05:12:36;;;;;;;2.00;1.13;;;;;;;22.09;57.28;101054.50;5032769;28;20143;-57
2021/06/30 05:15:02;;;;;;;2.10;1.20;;;;;;;22.08;57.20;101052.84;5033173;28;20037;-57
2021/06/30 05:17:27;;;;;;;2.35;1.20;;;;;;;22.10;57.10;101061.50;5033336;28;20026;-56
2021/06/30 05:19:55;;;;;;;2.10;1.20;;;;;;;22.09;57.22;101059.81;5033018;28;20030;-57
2021/06/30 05:22:20;;;;;;;2.53;1.20;;;;;;;22.09;57.16;101062.47;5033228;28;20032;-58
2021/06/30 05:24:46;;;;;;;2.00;1.13;;;;;;;22.03;57.26;101047.16;5033236;28;20030;-58
2021/06/30 05:27:11;;;;;;;2.65;1.40;;;;;;;22.09;57.10;101051.03;5032760;28;20271;-57
2021/06/30 05:29:36;;;;;;;3.57;1.50;;;;;;;22.08;57.08;101052.84;5033079;28;20048;-57
2021/06/30 05:32:07;;;;;;;2.83;1.20;;;;;;;22.07;57.38;101048.50;5032004;28;20343;-57
2021/06/30 05:34:32;;;;;;;1.65;1.10;;;;;;;22.07;57.04;101050.34;5033420;28;20021;-57
2021/06/30 05:37:01;;;;;;;2.10;1.10;;;;;;;22.07;56.91;101050.34;5033306;28;20033;-57
2021/06/30 05:39:26;;;;;;;2.33;1.27;;;;;;;22.07;56.96;101053.81;5032762;28;20271;-57
2021/06/30 05:41:51;;;;;;;2.55;1.55;;;;;;;22.07;56.97;101050.34;5033048;28;20361;-57
2021/06/30 05:44:17;;;;;;;2.50;1.30;;;;;;;22.05;57.08;101050.50;5032558;28;20034;-57
2021/06/30 05:46:43;;;;;;;1.55;1.00;;;;;;;22.06;57.26;101046.00;5032356;28;20746;-56
2021/06/30 05:49:12;;;;;;;2.30;1.20;;;;;;;22.05;57.31;101049.66;5032650;28;20030;-57
2021/06/30 05:51:38;;;;;;;2.35;1.23;;;;;;;22.06;57.03;101052.19;5032556;28;20437;-58
2021/06/30 05:54:03;;;;;;;2.45;1.30;;;;;;;22.06;57.18;101054.81;5031788;28;20053;-58
2021/06/30 05:56:28;;;;;;;2.35;1.30;;;;;;;22.05;56.91;101050.50;5032734;28;20041;-59
2021/06/30 05:58:54;;;;;;;3.35;1.23;;;;;;;22.05;57.19;101052.31;5032529;28;20048;-57
2021/06/30 06:01:20;;;;;;;2.47;1.27;;;;;;;22.05;56.89;101049.66;5031743;28;20029;-58
2021/06/30 06:03:47;;;;;;;2.60;1.30;;;;;;;22.04;57.02;101054.13;5031561;28;20092;-58
2021/06/30 06:06:12;;;;;;;2.03;1.20;;;;;;;22.05;56.88;101061.09;5032194;28;20040;-58
2021/06/30 06:08:40;;;;;;;2.53;1.30;;;;;;;22.04;57.07;101055.94;5031897;28;20408;-58
2021/06/30 06:11:10;;;;;;;2.50;1.30;;;;;;;22.03;57.00;101052.47;5032153;28;20029;-58
2021/06/30 06:13:36;;;;;;;2.88;1.17;;;;;;;22.04;57.17;101055.94;5032440;28;20025;-58
2021/06/30 06:16:01;;;;;;;2.63;1.30;;;;;;;22.04;56.99;101062.06;5031555;28;20173;-58
2021/06/30 06:18:26;;;;;;;2.78;1.17;;;;;;;22.04;56.95;101063.91;5032297;28;20056;-58
2021/06/30 06:20:51;;;;;;;2.73;1.40;;;;;;;22.03;57.02;101062.22;5032422;28;20495;-58
2021/06/30 06:23:17;;;;;;;2.05;1.15;;;;;;;22.02;56.94;101056.09;5031276;28;20309;-58
2021/06/30 06:25:42;;;;;;;2.45;1.30;;;;;;;22.02;56.96;101053.44;5032245;28;20029;-58
2021/06/30 06:28:07;;;;;;;2.85;1.30;;;;;;;22.02;56.80;101058.75;5031173;28;20025;-58
2021/06/30 06:30:33;;;;;;;2.33;1.33;;;;;;;22.03;56.78;101060.41;5031931;28;20099;-58
2021/06/30 06:32:58;;;;;;;2.50;1.17;;;;;;;22.02;56.88;101058.75;5032383;28;20030;-58
2021/06/30 06:35:23;;;;;;;2.97;1.30;;;;;;;22.02;56.71;101066.69;5031021;28;20022;-59
2021/06/30 06:37:49;;;;;;;2.40;1.10;;;;;;;22.01;57.07;101065.03;5032303;28;20266;-58
2021/06/30 06:40:16;;;;;;;2.67;1.33;;;;;;;22.00;56.99;101059.84;5031820;28;20024;-58
2021/06/30 06:42:42;;;;;;;2.55;1.50;;;;;;;21.99;56.98;101067.00;5029478;28;20021;-57
2021/06/30 06:45:09;;;;;;;2.92;1.42;;;;;;;21.98;57.14;101064.47;5032510;28;20109;-56
2021/06/30 06:47:35;;;;;;;4.47;1.70;;;;;;;21.98;57.06;101059.16;5032350;28;20029;-58
2021/06/30 06:50:01;;;;;;;2.88;1.25;;;;;;;21.99;57.29;101060.84;5031604;28;20028;-59
2021/06/30 06:52:26;;;;;;;4.95;1.40;;;;;;;22.00;57.49;101063.38;5031956;28;20033;-57
2021/06/30 06:54:55;;;;;;;3.63;1.50;;;;;;;22.00;57.48;101068.66;5032214;28;20061;-57
2021/06/30 06:57:20;;;;;;;5.18;1.48;;;;;;;22.00;57.43;101071.31;5031450;28;20469;-58
2021/06/30 06:59:45;;;;;;;3.33;1.83;;;;;;;22.01;57.43;101069.50;5032605;28;20029;-57
2021/06/30 07:02:10;;;;;;;3.10;1.52;;;;;;;22.01;57.43;101066.84;5032576;28;20055;-58
2021/06/30 07:04:39;;;;;;;2.78;1.33;;;;;;;22.01;57.41;101064.19;5031296;28;20399;-58
2021/06/30 07:07:04;;;;;;;2.83;1.50;;;;;;;22.01;57.51;101066.84;5031589;28;20021;-57
2021/06/30 07:09:30;;;;;;;3.83;1.88;;;;;;;22.01;57.48;101067.66;5031819;28;20049;-58
2021/06/30 07:11:55;;;;;;;2.40;1.25;;;;;;;22.02;57.61;101073.84;5031447;28;20460;-58
2021/06/30 07:14:20;;;;;;;2.30;1.23;;;;;;;22.02;57.60;101069.34;5032087;28;20556;-59
2021/06/30 07:16:49;;;;;;;3.35;1.60;;;;;;;22.04;57.62;101075.34;5031163;28;20359;-58
2021/06/30 07:19:14;;;;;;;4.28;1.65;;;;;;;22.06;57.61;101069.88;4996149;28;20026;-56
2021/06/30 07:21:39;;;;;;;3.88;1.75;;;;;;;22.06;57.65;101077.84;4996893;28;20081;-58
2021/06/30 07:24:06;;;;;;;2.87;1.50;;;;;;;22.06;57.50;101078.72;4996233;28;20049;-58
2021/06/30 07:26:32;;;;;;;4.50;1.58;;;;;;;22.07;57.65;101077.72;4995585;28;20351;-59
2021/06/30 07:28:57;;;;;;;4.10;1.50;;;;;;;22.09;57.85;101077.56;4996204;28;20061;-58
2021/06/30 07:31:22;;;;;;;3.30;1.33;;;;;;;22.09;57.82;101082.88;4995134;28;20064;-58
2021/06/30 07:33:49;;;;;;;4.75;1.80;;;;;;;22.09;57.84;101085.53;5030972;28;20267;-59
2021/06/30 07:36:16;;;;;;;3.55;1.50;;;;;;;22.10;57.59;101084.56;5034344;28;20473;-59
2021/06/30 07:38:45;;;;;;;3.83;1.50;;;;;;;22.10;57.54;101090.69;5034867;28;20151;-58
2021/06/30 07:41:10;;;;;;;3.25;1.50;;;;;;;22.10;57.75;101088.03;5034784;28;20488;-59
2021/06/30 07:43:36;;;;;;;3.25;1.50;;;;;;;22.12;57.77;101089.72;5035429;28;20029;-59
2021/06/30 07:46:01;;;;;;;3.47;1.30;;;;;;;22.11;57.82;101086.22;5034077;28;20045;-63
2021/06/30 07:48:27;;;;;;;2.67;1.45;;;;;;;22.12;57.96;101092.38;5035041;28;20026;-58
2021/06/30 07:50:55;;;;;;;4.63;1.70;;;;;;;22.12;58.04;101093.19;5034951;28;20029;-58
2021/06/30 07:53:20;;;;;;;2.88;1.52;;;;;;;22.12;58.07;101092.38;5033871;28;20511;-58
2021/06/30 07:55:49;;;;;;;2.90;1.40;;;;;;;22.13;58.22;101089.56;5034920;28;20108;-58
2021/06/30 07:58:15;;;;;;;3.28;1.30;;;;;;;22.14;57.95;101095.72;5034665;28;20029;-58
2021/06/30 08:00:40;;;;;;;2.90;1.40;;;;;;;22.13;57.87;101096.69;5034114;28;20044;-58
2021/06/30 08:03:07;;;;;;;3.83;1.48;;;;;;;22.13;58.20;101102.84;5034058;28;20025;-58
2021/06/30 08:05:33;;;;;;;2.17;1.27;;;;;;;22.14;58.19;101108.97;5034747;28;20029;-58
2021/06/30 08:07:58;;;;;;;3.97;1.40;;;;;;;22.13;57.96;101108.16;5033434;28;20029;-58
2021/06/30 08:10:24;;;;;;;3.17;1.30;;;;;;;22.14;58.16;101109.81;5033977;28;20029;-56
2021/06/30 08:12:49;;;;;;;4.93;2.05;;;;;;;22.13;58.07;101109.94;5034606;28;20104;-58
2021/06/30 08:15:14;;;;;;;4.10;1.30;;;;;;;22.13;57.95;101113.47;5033687;28;20025;-59
2021/06/30 08:17:46;;;;;;;3.70;1.50;;;;;;;22.14;58.01;101111.63;5034820;28;20306;-59
2021/06/30 08:20:12;;;;;;;2.88;1.30;;;;;;;22.14;58.28;101107.16;5034096;28;20726;-59
2021/06/30 08:22:37;;;;;;;3.55;1.63;;;;;;;22.15;58.14;101110.66;5033532;28;20035;-59
2021/06/30 08:25:03;;;;;;;3.15;1.20;;;;;;;22.13;58.06;101105.50;5034531;28;20053;-58
2021/06/30 08:27:28;;;;;;;2.50;1.27;;;;;;;22.15;58.14;101110.66;5034347;28;20028;-58
2021/06/30 08:29:54;;;;;;;2.90;1.38;;;;;;;22.15;58.27;101114.16;5033465;28;20052;-59
2021/06/30 08:32:23;;;;;;;2.65;1.30;;;;;;;22.14;58.32;101108.97;5034036;28;20029;-58
2021/06/30 08:34:48;;;;;;;3.42;1.50;;;;;;;22.14;58.12;101111.63;5033431;28;20040;-59
2021/06/30 08:37:13;;;;;;;2.60;1.40;;;;;;;22.12;58.10;101111.78;5034728;28;20022;-60
2021/06/30 08:39:39;;;;;;;3.67;1.50;;;;;;;22.13;57.95;101108.16;5034785;28;20281;-59
2021/06/30 08:42:04;;;;;;;5.47;1.63;;;;;;;22.13;58.07;101115.25;5033356;28;20430;-59
2021/06/30 08:44:29;;;;;;;3.30;1.48;;;;;;;22.12;57.94;101108.31;5034587;28;20100;-59
2021/06/30 08:46:56;;;;;;;2.28;1.20;;;;;;;22.10;58.15;101111.09;5034686;28;20033;-58
2021/06/30 08:49:26;;;;;;;3.83;1.27;;;;;;;22.10;58.12;101111.09;5033360;28;20055;-59
2021/06/30 08:52:12;;;;;;;3.53;1.42;;;;;;;22.08;57.97;101107.75;5034166;28;20025;-59
2021/06/30 08:54:44;;;;;;;2.75;1.25;;;;;;;22.09;57.91;101118.19;5026918;28;20088;-59
2021/06/30 08:57:12;;;;;;;2.78;1.23;;;;;;;22.09;57.82;101120.03;5033208;28;20036;-58
2021/06/30 08:59:38;;;;;;;3.47;1.30;;;;;;;22.09;57.88;101120.84;5034084;28;20033;-59
2021/06/30 09:02:04;;;;;;;2.78;1.25;;;;;;;22.08;57.86;101119.19;5033774;28;20366;-57
2021/06/30 09:04:29;;;;;;;2.13;1.17;;;;;;;22.08;57.85;101126.34;5033028;28;20056;-58
2021/06/30 09:06:54;;;;;;;4.43;1.48;;;;;;;22.08;57.90;101123.69;5034120;28;20470;-59
2021/06/30 09:09:20;;;;;;;3.33;1.55;;;;;;;22.06;57.87;101121.16;5033747;28;20021;-59
2021/06/30 09:12:15;;;;;;;3.17;1.40;;;;;;;22.08;57.78;101129.00;5033067;28;20536;-59
2021/06/30 09:14:41;;;;;;;2.80;1.40;;;;;;;22.08;57.91;101129.81;5032540;28;20041;-59
2021/06/30 09:19:54;;;;;;;4.22;1.55;;;;;;;22.08;57.57;101127.16;5033690;28;20468;-59
2021/06/30 09:22:23;;;;;;;3.10;1.35;;;;;;;22.07;57.54;101138.75;5033125;28;20030;-59
2021/06/30 09:24:54;;;;;;;2.83;1.40;;;;;;;22.05;57.50;101138.06;5032804;28;20087;-59
2021/06/30 09:27:39;;;;;;;3.20;1.50;;;;;;;22.09;57.71;101135.94;5033262;28;20021;-59
2021/06/30 09:30:06;;;;;;;3.40;1.52;;;;;;;22.10;57.72;101141.13;5035985;28;20097;-63
2021/06/30 09:32:32;;;;;;;3.85;1.60;;;;;;;22.12;57.94;101140.97;5032799;28;20079;-64
2021/06/30 09:35:20;;;;;;;3.80;1.30;;;;;;;22.14;57.75;101139.00;5033553;28;20037;-62
2021/06/30 09:37:49;;;;;;;2.97;1.35;;;;;;;22.16;57.72;101149.47;5033236;28;20030;-60
2021/06/30 09:40:18;;;;;;;3.33;1.15;;;;;;;22.18;57.57;101143.06;5032533;28;20053;-64
2021/06/30 09:42:44;;;;;;;3.72;1.40;;;;;;;22.19;57.51;101150.06;5033263;28;20109;-59
2021/06/30 09:45:15;;;;;;;4.13;1.40;;;;;;;22.19;57.65;101146.53;5032127;28;20034;-59
2021/06/30 09:47:46;;;;;;;5.55;1.45;;;;;;;22.18;57.30;101140.41;5033171;28;20029;-59
2021/06/30 09:50:14;;;;;;;2.67;1.25;;;;;;;22.15;57.42;101148.66;5033252;28;20495;-59
2021/06/30 09:52:42;;;;;;;2.50;1.10;;;;;;;22.13;57.26;101141.81;5032651;28;20036;-59
2021/06/30 09:55:28;;;;;;;2.40;1.20;;;;;;;22.13;57.40;101142.66;5032800;28;20056;-60
2021/06/30 09:57:55;;;;;;;6.20;1.23;;;;;;;22.13;57.44;101149.75;5033109;28;20477;-59
2021/06/30 10:00:20;;;;;;;2.70;1.35;;;;;;;22.14;57.58;101149.63;5031865;28;20025;-58
2021/06/30 10:02:48;;;;;;;3.25;1.40;;;;;;;22.13;57.43;101147.13;5032756;28;20389;-58
2021/06/30 10:05:14;;;;;;;2.50;1.20;;;;;;;22.16;57.45;101153.00;5031334;28;20029;-58
2021/06/30 10:07:39;;;;;;;3.58;1.40;;;;;;;22.16;57.32;101158.31;5031155;28;20033;-60
2021/06/30 10:10:09;;;;;;;2.60;1.20;;;;;;;22.16;57.35;101152.13;5032517;28;20053;-57
2021/06/30 10:12:37;;;;;;;3.25;1.45;;;;;;;22.18;57.26;101155.50;5032449;28;20033;-59
2021/06/30 10:15:06;;;;;;;2.90;1.05;;;;;;;22.18;57.29;101148.38;5031397;28;20683;-59
2021/06/30 10:17:32;;;;;;;1.80;1.10;;;;;;;22.15;57.18;101153.13;5032352;28;20381;-60
2021/06/30 10:20:36;;;;;;;3.85;1.30;;;;;;;22.19;57.22;101162.47;5032649;28;20032;-58
2021/06/30 10:23:02;;;;;;;4.07;1.17;;;;;;;22.19;57.34;101157.16;5031997;28;20089;-59
2021/06/30 10:25:30;;;;;;;3.17;1.20;;;;;;;22.20;57.31;101158.84;5032437;28;20045;-57
2021/06/30 10:27:56;;;;;;;3.60;1.20;;;;;;;22.20;57.35;101158.84;5032041;28;20309;-60
2021/06/30 10:30:24;;;;;;;2.65;1.20;;;;;;;22.20;57.45;101161.50;5032092;28;20043;-58
2021/06/30 10:33:01;;;;;;;3.15;1.20;;;;;;;22.21;57.31;101149.91;5032215;28;20033;-60
2021/06/30 10:35:26;;;;;;;4.50;1.20;;;;;;;22.21;57.27;101147.25;5031943;28;20029;-58
2021/06/30 10:37:55;;;;;;;2.47;1.15;;;;;;;22.22;57.44;101152.41;5032133;28;20032;-60
2021/06/30 10:40:22;;;;;;;2.85;1.10;;;;;;;22.15;57.24;101138.03;5031975;28;20029;-59
2021/06/30 10:43:01;;;;;;;2.95;1.10;;;;;;;22.16;57.48;101138.88;5031341;28;20457;-60
2021/06/30 10:45:30;;;;;;;3.20;1.17;;;;;;;22.20;57.43;101143.75;5033874;28;20053;-59
2021/06/30 10:47:55;;;;;;;5.70;1.33;;;;;;;22.22;57.37;101138.28;5031155;28;20485;-58
2021/06/30 10:50:24;;;;;;;4.03;1.08;;;;;;;22.23;57.46;101143.47;5030777;28;20037;-58
2021/06/30 10:53:14;;;;;;;1.90;1.00;;;;;;;22.25;57.32;101141.47;5031218;28;20032;-58
2021/06/30 10:55:40;;;;;;;2.38;1.00;;;;;;;22.27;57.24;101141.34;4986895;28;20137;-55
2021/06/30 10:58:15;;;;;;;3.72;1.13;;;;;;;22.28;57.32;101137.72;4996882;28;20156;-56
2021/06/30 11:01:04;;;;;;;2.75;1.10;;;;;;;22.31;57.29;101140.13;5014213;28;20138;-57
2021/06/30 11:03:35;;;;;;;3.47;1.50;;;;;;;22.34;57.41;101139.00;5010489;28;20351;-57
2021/06/30 11:06:07;;;;;;;3.92;1.27;;;;;;;22.35;57.37;101138.84;5010246;28;20358;-55
2021/06/30 11:08:46;;;;;;;2.40;1.10;;;;;;;22.37;57.43;101136.06;5012094;28;20026;-56
2021/06/30 11:11:15;;;;;;;2.00;1.00;;;;;;;22.37;57.32;101141.38;5011134;28;20389;-56
2021/06/30 11:13:58;;;;;;;3.28;1.33;;;;;;;22.38;57.39;101141.22;5011674;28;20335;-54
2021/06/30 11:16:39;;;;;;;3.07;1.10;;;;;;;22.38;57.54;101143.00;5011734;28;20025;-57
2021/06/30 11:19:06;;;;;;;3.30;0.98;;;;;;;22.38;57.55;101149.19;5011483;28;20026;-58
2021/06/30 11:21:51;;;;;;;2.22;1.10;;;;;;;22.39;57.56;101142.03;5011712;28;20030;-55
2021/06/30 11:27:06;;;;;;;3.30;1.27;;;;;;;22.39;57.67;101156.16;5011551;28;20030;-56
2021/06/30 11:29:47;;;;;;;4.80;1.30;;;;;;;22.39;57.68;101147.34;5011700;28;20569;-56